Time;durP1;ratioP1;P1;durP2;ratioP2;P2;SDS_P1;SDS_P2;PMS_P1;PMS_P2;Temp;Humidity;BMP_temperature;BMP_pressure;BME280_temperature;BME280_humidity;BME280_pressure;Samples;Min_cycle;Max_cycle;Signal;HPM_P1;HPM_P2
2023/09/23 00:02:00;;;;;;;0.80;0.50;;;;;;;14.11;79.98;99826.19;5047536;28;20294;-79
2023/09/23 00:04:29;;;;;;;1.40;0.40;;;;;;;14.13;80.11;99824.22;5048811;28;20202;-80
2023/09/23 00:06:55;;;;;;;1.90;0.50;;;;;;;14.07;80.46;99822.94;5043220;28;20234;-79
2023/09/23 00:09:22;;;;;;;0.73;0.40;;;;;;;14.04;80.81;99827.72;5046721;28;20202;-80
2023/09/23 00:11:49;;;;;;;0.73;0.50;;;;;;;14.04;80.39;99836.59;5046603;28;20202;-81
2023/09/23 00:14:16;;;;;;;1.07;0.50;;;;;;;13.98;81.19;99830.94;5050603;28;20218;-81
2023/09/23 00:16:44;;;;;;;1.03;0.47;;;;;;;13.96;81.50;99846.31;5048355;28;20315;-80
2023/09/23 00:19:11;;;;;;;0.40;0.40;;;;;;;13.90;81.24;99850.38;5049177;28;20210;-79
2023/09/23 00:21:38;;;;;;;1.70;0.43;;;;;;;13.86;81.55;99847.13;5046896;28;20248;-80
2023/09/23 00:24:05;;;;;;;0.60;0.40;;;;;;;13.83;81.64;99852.75;5050173;28;20213;-81
2023/09/23 00:26:32;;;;;;;0.93;0.57;;;;;;;13.79;81.78;99856.69;5049883;28;20698;-79
2023/09/23 00:28:59;;;;;;;0.70;0.47;;;;;;;13.77;82.11;99865.84;5050509;28;20205;-81
2023/09/23 00:31:27;;;;;;;1.33;0.40;;;;;;;13.75;82.35;99870.50;5046714;28;20221;-81
2023/09/23 00:33:53;;;;;;;1.60;0.43;;;;;;;13.72;82.21;99868.94;5050011;28;20211;-80
2023/09/23 00:36:22;;;;;;;1.37;0.40;;;;;;;13.71;82.74;99863.72;5047632;28;20209;-79
2023/09/23 00:38:49;;;;;;;1.40;0.30;;;;;;;13.69;82.64;99865.66;5053692;28;21437;-80
2023/09/23 00:41:15;;;;;;;1.47;0.60;;;;;;;13.71;83.05;99872.59;5051613;28;20237;-80
2023/09/23 00:43:42;;;;;;;1.30;0.37;;;;;;;13.68;83.02;99872.84;5051326;28;20220;-81
2023/09/23 00:46:10;;;;;;;0.87;0.40;;;;;;;13.67;83.14;99875.66;5047636;28;20714;-80
2023/09/23 00:48:42;;;;;;;1.30;0.50;;;;;;;13.64;83.67;99883.97;5042109;28;20749;-80
2023/09/23 00:51:10;;;;;;;1.07;0.97;;;;;;;13.64;83.36;99881.28;5050110;28;20260;-80
2023/09/23 00:53:39;;;;;;;0.97;0.53;;;;;;;13.62;83.69;99876.06;5046955;28;20209;-79
2023/09/23 00:56:07;;;;;;;0.90;0.50;;;;;;;13.60;83.48;99879.88;5049255;28;20214;-80
2023/09/23 00:58:36;;;;;;;0.70;0.30;;;;;;;13.60;83.81;99891.44;5051898;28;20323;-81
2023/09/23 01:01:03;;;;;;;1.03;0.40;;;;;;;13.61;83.77;99881.56;5050701;28;20232;-80
2023/09/23 01:03:30;;;;;;;1.07;0.50;;;;;;;13.62;83.97;99877.88;5046340;28;20705;-80
2023/09/23 01:06:03;;;;;;;0.63;0.50;;;;;;;13.66;84.03;99874.81;5047132;28;20834;-81
2023/09/23 01:08:30;;;;;;;0.30;0.30;;;;;;;13.67;83.42;99881.84;5043328;28;20320;-81
2023/09/23 01:10:57;;;;;;;1.00;0.40;;;;;;;13.64;83.79;99882.13;5047952;28;20313;-80
2023/09/23 01:13:24;;;;;;;0.93;0.40;;;;;;;13.65;84.31;99881.16;5048337;28;20197;-77
2023/09/23 01:15:51;;;;;;;0.53;0.40;;;;;;;13.65;84.30;99880.28;5045695;28;20600;-80
2023/09/23 01:18:18;;;;;;;0.47;0.40;;;;;;;13.63;84.35;99885.78;5046500;28;20206;-80
2023/09/23 01:20:48;;;;;;;1.43;0.40;;;;;;;13.66;84.35;99890.88;5048393;28;20249;-81
2023/09/23 01:23:16;;;;;;;0.80;0.67;;;;;;;13.66;84.37;99901.56;5051775;28;20814;-81
2023/09/23 01:25:43;;;;;;;1.17;0.50;;;;;;;13.65;83.94;99891.84;5051555;28;20632;-79
2023/09/23 01:28:13;;;;;;;1.53;0.67;;;;;;;13.66;83.76;99896.22;5045711;28;20229;-80
2023/09/23 01:30:40;;;;;;;1.80;0.70;;;;;;;13.67;84.04;99894.41;5046786;28;20226;-80
2023/09/23 01:33:08;;;;;;;0.67;0.40;;;;;;;13.68;84.17;99896.94;5051940;28;20768;-81
2023/09/23 01:35:35;;;;;;;0.97;0.40;;;;;;;13.69;84.11;99903.97;5047539;28;20290;-80
2023/09/23 01:38:02;;;;;;;1.03;0.50;;;;;;;13.70;83.84;99904.84;5050972;28;20220;-80
2023/09/23 01:40:31;;;;;;;2.03;0.50;;;;;;;13.73;84.03;99910.75;5048251;28;20256;-81
2023/09/23 01:42:58;;;;;;;1.90;0.50;;;;;;;13.72;84.15;99913.56;5050233;28;20277;-80
2023/09/23 01:45:26;;;;;;;0.63;0.40;;;;;;;13.72;84.20;99905.53;5047416;28;20826;-81
2023/09/23 01:47:56;;;;;;;1.33;0.40;;;;;;;13.72;84.38;99911.75;5049036;28;20597;-80
2023/09/23 01:50:23;;;;;;;1.50;0.50;;;;;;;13.71;83.91;99915.41;5046639;28;20293;-80
2023/09/23 01:52:51;;;;;;;1.87;0.70;;;;;;;13.72;83.87;99910.91;5050815;28;20216;-78
2023/09/23 01:55:18;;;;;;;0.70;0.60;;;;;;;13.70;83.35;99916.38;5043894;28;20206;-79
2023/09/23 01:57:47;;;;;;;1.93;0.70;;;;;;;13.69;83.69;99909.34;5053248;28;20225;-81
2023/09/23 02:00:17;;;;;;;1.30;0.63;;;;;;;13.67;83.90;99907.78;5051178;28;20233;-80
2023/09/23 02:02:44;;;;;;;1.60;0.87;;;;;;;13.69;84.14;99917.38;5046101;28;20193;-81
2023/09/23 02:05:10;;;;;;;1.57;0.70;;;;;;;13.70;83.20;99921.72;5046444;28;20197;-79
2023/09/23 02:07:39;;;;;;;1.57;0.93;;;;;;;13.66;83.18;99922.13;5051648;28;20226;-80
2023/09/23 02:10:08;;;;;;;1.47;0.60;;;;;;;13.66;83.14;99922.97;5049211;28;20857;-80
2023/09/23 02:12:34;;;;;;;1.10;0.80;;;;;;;13.64;83.27;99919.59;5048991;28;20206;-81
2023/09/23 02:15:02;;;;;;;2.97;0.87;;;;;;;13.60;83.22;99920.84;5047787;28;20207;-79
2023/09/23 02:17:28;;;;;;;1.00;0.70;;;;;;;13.62;82.90;99916.19;5045760;28;20698;-80
2023/09/23 02:19:57;;;;;;;0.90;0.60;;;;;;;13.63;82.52;99928.59;5050432;28;20752;-80
2023/09/23 02:22:24;;;;;;;1.40;0.90;;;;;;;13.60;82.89;99934.25;5046244;28;20209;-80
2023/09/23 02:24:50;;;;;;;1.53;0.80;;;;;;;13.59;82.35;99937.91;5042386;28;20210;-81
2023/09/23 02:27:17;;;;;;;0.93;0.80;;;;;;;13.63;81.92;99933.94;5038462;28;20225;-80
2023/09/23 02:29:44;;;;;;;2.40;0.83;;;;;;;13.62;81.95;99937.59;5043477;28;20218;-79
2023/09/23 02:32:12;;;;;;;1.23;1.00;;;;;;;13.63;81.91;99933.94;5045730;28;20201;-80
2023/09/23 02:34:39;;;;;;;1.60;1.20;;;;;;;13.64;81.61;99940.16;5040777;28;20206;-80
2023/09/23 02:37:05;;;;;;;2.50;1.07;;;;;;;13.58;81.57;99938.88;5049955;28;20201;-80
2023/09/23 02:39:32;;;;;;;1.27;1.13;;;;;;;13.58;81.80;99935.34;5042684;28;20255;-78
2023/09/23 02:41:59;;;;;;;2.23;1.30;;;;;;;13.57;82.13;99942.53;5044471;28;20283;-80
2023/09/23 02:44:29;;;;;;;2.50;1.23;;;;;;;13.56;81.81;99943.50;5051562;28;20217;-80
2023/09/23 02:46:56;;;;;;;1.43;0.90;;;;;;;13.55;82.53;99948.00;5047232;28;20256;-79
2023/09/23 02:49:24;;;;;;;1.07;0.90;;;;;;;13.52;82.46;99955.44;5043704;28;20214;-79
2023/09/23 02:51:50;;;;;;;1.37;0.80;;;;;;;13.48;83.03;99946.84;5042657;28;20221;-81
2023/09/23 02:54:18;;;;;;;1.30;1.00;;;;;;;13.50;82.94;99955.56;5038942;28;20255;-81
2023/09/23 02:56:46;;;;;;;1.33;0.93;;;;;;;13.50;82.39;99957.41;5041437;28;20692;-81
2023/09/23 02:59:13;;;;;;;1.47;1.37;;;;;;;13.51;82.22;99959.94;5047250;28;20208;-80
2023/09/23 03:01:45;;;;;;;2.00;1.10;;;;;;;13.50;81.72;99963.59;5049672;28;20205;-80
2023/09/23 03:04:17;;;;;;;2.07;1.20;;;;;;;13.50;81.13;99962.75;5049954;28;20318;-80
2023/09/23 03:06:49;;;;;;;2.40;1.10;;;;;;;13.50;81.05;99970.78;5046617;28;20228;-79
2023/09/23 03:09:19;;;;;;;1.57;1.27;;;;;;;13.46;81.23;99964.00;5047929;28;20236;-80
2023/09/23 03:11:49;;;;;;;1.17;1.00;;;;;;;13.45;81.24;99962.28;5038522;28;20204;-79
2023/09/23 03:14:18;;;;;;;1.63;1.10;;;;;;;13.41;80.51;99971.59;5040135;28;20663;-80
2023/09/23 03:16:49;;;;;;;1.00;0.90;;;;;;;13.36;80.28;99980.00;5041825;28;20255;-81
2023/09/23 03:19:24;;;;;;;1.80;1.13;;;;;;;13.31;79.86;99981.34;5041158;28;20207;-81
2023/09/23 03:21:55;;;;;;;1.40;0.93;;;;;;;13.34;79.03;99986.44;5044514;28;20201;-81
2023/09/23 03:24:22;;;;;;;1.43;1.23;;;;;;;13.33;79.36;99984.75;5042500;28;20207;-80
2023/09/23 03:26:51;;;;;;;1.30;1.20;;;;;;;13.29;79.02;99999.34;5037619;28;20222;-80
2023/09/23 03:29:18;;;;;;;2.43;1.80;;;;;;;13.24;79.13;100010.47;5044455;28;20217;-80
2023/09/23 03:31:45;;;;;;;1.60;1.27;;;;;;;13.23;78.65;100015.94;5038232;28;20263;-80
2023/09/23 03:34:13;;;;;;;1.97;1.70;;;;;;;13.18;79.08;100019.84;5045709;28;20711;-80
2023/09/23 03:36:39;;;;;;;1.67;1.57;;;;;;;13.17;79.11;100025.31;5046868;28;20276;-80
2023/09/23 03:39:08;;;;;;;1.97;1.57;;;;;;;13.19;78.91;100040.25;5049889;28;20214;-80
2023/09/23 03:41:36;;;;;;;1.73;1.60;;;;;;;13.17;79.16;100044.88;5043130;28;20221;-80
2023/09/23 03:44:03;;;;;;;1.30;1.20;;;;;;;13.17;79.63;100050.22;5042904;28;20222;-80
2023/09/23 03:46:29;;;;;;;1.50;1.40;;;;;;;13.17;79.88;100058.25;5046389;28;20206;-80
2023/09/23 03:48:57;;;;;;;1.50;1.40;;;;;;;13.16;80.53;100059.22;5038988;28;20655;-80
2023/09/23 03:51:24;;;;;;;1.83;1.40;;;;;;;13.16;80.91;100064.56;5043200;28;20847;-80
2023/09/23 03:53:51;;;;;;;1.63;1.40;;;;;;;13.19;81.36;100055.44;5042203;28;20206;-80
2023/09/23 03:56:19;;;;;;;1.43;1.33;;;;;;;13.16;81.68;100064.56;5047600;28;20226;-82
2023/09/23 03:58:45;;;;;;;1.60;1.40;;;;;;;13.13;82.21;100059.44;5044006;28;20357;-80
2023/09/23 04:01:13;;;;;;;1.57;1.47;;;;;;;13.12;82.69;100071.09;5037445;28;20221;-81
2023/09/23 04:03:40;;;;;;;2.10;1.90;;;;;;;13.10;83.11;100074.88;5045042;28;20267;-81
2023/09/23 04:06:06;;;;;;;2.23;2.03;;;;;;;13.09;84.80;100079.38;5051245;28;20741;-78
2023/09/23 04:08:33;;;;;;;2.57;2.00;;;;;;;13.06;86.20;100095.69;5050610;28;20239;-80
2023/09/23 04:11:03;;;;;;;2.90;2.20;;;;;;;13.04;87.28;100103.00;5046419;28;20230;-81
2023/09/23 04:13:31;;;;;;;2.23;2.03;;;;;;;13.00;88.52;100096.19;5052563;28;20202;-81
2023/09/23 04:16:00;;;;;;;2.33;2.10;;;;;;;12.96;89.73;100110.78;5051935;28;20581;-80
2023/09/23 04:18:27;;;;;;;2.60;2.40;;;;;;;12.90;90.00;100110.44;5043863;28;20260;-79
2023/09/23 04:20:53;;;;;;;2.77;2.07;;;;;;;12.90;91.57;100113.13;5051611;28;20232;-80
2023/09/23 04:23:20;;;;;;;2.27;2.07;;;;;;;12.86;92.17;100116.03;5049105;28;20214;-81
2023/09/23 04:25:48;;;;;;;2.93;2.63;;;;;;;12.82;93.19;100132.44;5046501;28;20202;-80
2023/09/23 04:28:14;;;;;;;2.70;2.50;;;;;;;12.79;93.91;100127.34;5049439;28;20229;-80
2023/09/23 04:30:42;;;;;;;3.47;3.07;;;;;;;12.77;95.12;100130.13;5049934;28;20232;-80
2023/09/23 04:33:11;;;;;;;2.53;2.23;;;;;;;12.75;95.61;100128.53;5050572;28;20214;-80
2023/09/23 04:35:38;;;;;;;2.20;2.00;;;;;;;12.75;96.81;100129.41;5048901;28;20199;-80
2023/09/23 04:38:05;;;;;;;2.93;2.63;;;;;;;12.75;96.79;100140.09;5050379;28;20204;-82
2023/09/23 04:40:31;;;;;;;3.37;2.40;;;;;;;12.70;97.08;100141.44;5044437;28;20236;-81
2023/09/23 04:42:58;;;;;;;3.10;2.30;;;;;;;12.68;97.91;100149.59;5046992;28;20300;-79
2023/09/23 04:45:24;;;;;;;3.00;2.30;;;;;;;12.66;98.38;100154.19;5048188;28;20209;-80
2023/09/23 04:47:52;;;;;;;2.40;2.17;;;;;;;12.65;98.40;100159.66;5050336;28;20681;-80
2023/09/23 04:50:22;;;;;;;3.20;2.90;;;;;;;12.67;97.91;100160.38;5047841;28;20226;-78
2023/09/23 04:52:50;;;;;;;3.50;3.20;;;;;;;12.68;97.59;100156.75;5047521;28;20638;-81
2023/09/23 04:55:16;;;;;;;4.00;3.60;;;;;;;12.63;97.27;100159.78;5043396;28;20210;-80
2023/09/23 04:57:43;;;;;;;3.93;3.50;;;;;;;12.57;97.35;100156.72;5050185;28;20585;-81
2023/09/23 05:00:10;;;;;;;4.10;3.73;;;;;;;12.54;97.66;100151.66;5049824;28;20221;-79
2023/09/23 05:02:41;;;;;;;5.50;5.00;;;;;;;12.54;97.55;100167.69;5050255;28;20246;-77
2023/09/23 05:05:11;;;;;;;5.33;4.77;;;;;;;12.49;97.85;100173.38;5049933;28;20288;-79
2023/09/23 05:07:38;;;;;;;4.97;4.50;;;;;;;12.45;97.75;100175.44;5046740;28;20323;-81
2023/09/23 05:10:06;;;;;;;5.70;5.10;;;;;;;12.43;97.83;100174.72;5050717;28;20835;-81
2023/09/23 05:12:33;;;;;;;6.00;5.40;;;;;;;12.42;97.62;100186.34;5049816;28;20220;-80
2023/09/23 05:15:00;;;;;;;6.67;6.07;;;;;;;12.42;97.23;100185.50;5050482;28;20632;-78
2023/09/23 05:17:28;;;;;;;6.83;6.13;;;;;;;12.38;97.33;100184.03;5048927;28;20201;-79
2023/09/23 05:19:55;;;;;;;6.57;5.97;;;;;;;12.36;97.23;100197.50;5049998;28;20244;-81
2023/09/23 05:22:23;;;;;;;6.80;6.17;;;;;;;12.38;96.93;100189.38;5049636;28;20202;-79
2023/09/23 05:24:56;;;;;;;7.37;6.67;;;;;;;12.34;97.05;100183.47;5050925;28;20242;-80
2023/09/23 05:27:23;;;;;;;9.97;7.80;;;;;;;12.35;96.97;100176.28;5046268;28;20233;-79
2023/09/23 05:29:51;;;;;;;9.03;8.13;;;;;;;12.29;97.37;100188.28;5049631;28;20226;-82
2023/09/23 05:32:18;;;;;;;9.00;7.50;;;;;;;12.28;97.61;100189.25;5046677;28;20229;-80
2023/09/23 05:34:45;;;;;;;8.83;7.93;;;;;;;12.27;97.64;100192.06;5047651;28;20688;-78
2023/09/23 05:37:12;;;;;;;9.73;7.97;;;;;;;12.29;97.17;100190.97;5048550;28;20205;-79
2023/09/23 05:39:44;;;;;;;8.77;7.90;;;;;;;12.28;96.99;100189.25;5048753;28;20217;-81
2023/09/23 05:42:10;;;;;;;9.27;8.37;;;;;;;12.27;96.76;100203.59;5048530;28;20202;-79
2023/09/23 05:44:36;;;;;;;9.23;8.30;;;;;;;12.27;96.86;100208.91;5045131;28;20272;-80
2023/09/23 05:47:03;;;;;;;8.07;7.27;;;;;;;12.28;96.56;100215.97;5042419;28;20211;-79
2023/09/23 05:49:31;;;;;;;8.87;8.00;;;;;;;12.27;96.09;100224.94;5051691;28;20295;-78
2023/09/23 05:51:58;;;;;;;8.67;7.73;;;;;;;12.26;96.00;100233.06;5046475;28;20205;-79
2023/09/23 05:54:24;;;;;;;8.23;7.43;;;;;;;12.30;95.92;100237.22;5049083;28;20202;-81
2023/09/23 05:56:52;;;;;;;7.97;7.10;;;;;;;12.31;95.78;100241.59;5045102;28;20208;-80
2023/09/23 05:59:18;;;;;;;7.73;7.03;;;;;;;12.33;95.22;100243.16;5045667;28;20573;-80
2023/09/23 06:01:45;;;;;;;9.77;7.57;;;;;;;12.34;95.06;100247.53;5041222;28;20199;-79
2023/09/23 06:04:11;;;;;;;8.50;7.70;;;;;;;12.34;94.41;100250.22;5048926;28;20222;-79
2023/09/23 06:06:39;;;;;;;8.20;7.40;;;;;;;12.36;93.80;100240.22;5046897;28;20206;-81
2023/09/23 06:09:05;;;;;;;7.60;6.90;;;;;;;12.36;93.43;100236.75;5043624;28;20289;-81
2023/09/23 06:11:32;;;;;;;8.03;7.33;;;;;;;12.36;93.48;100250.91;5044138;28;20225;-79
2023/09/23 06:14:00;;;;;;;8.93;7.97;;;;;;;12.38;93.14;100253.47;5049410;28;20566;-79
2023/09/23 06:16:26;;;;;;;9.20;8.30;;;;;;;12.38;92.89;100257.00;5043525;28;20206;-80
2023/09/23 06:18:53;;;;;;;10.17;9.13;;;;;;;12.40;92.46;100256.88;5042382;28;20202;-80
2023/09/23 06:21:19;;;;;;;10.17;9.23;;;;;;;12.39;92.14;100261.38;5047524;28;20229;-78
2023/09/23 06:23:46;;;;;;;10.43;8.20;;;;;;;12.41;91.81;100264.78;5045132;28;20666;-80
2023/09/23 06:26:13;;;;;;;8.90;8.07;;;;;;;12.40;91.40;100273.75;5045400;28;20206;-79
2023/09/23 06:28:39;;;;;;;8.17;7.47;;;;;;;12.45;91.21;100271.59;5045970;28;20283;-80
2023/09/23 06:31:09;;;;;;;9.43;8.43;;;;;;;12.46;90.85;100285.78;5043387;28;20225;-81
2023/09/23 06:33:36;;;;;;;8.77;7.97;;;;;;;12.52;90.20;100282.66;5040379;28;20576;-79
2023/09/23 06:36:03;;;;;;;9.10;8.20;;;;;;;12.53;90.24;100295.06;5041860;28;20205;-80
2023/09/23 06:38:30;;;;;;;10.00;9.00;;;;;;;12.55;90.59;100298.44;5048049;28;20268;-81
2023/09/23 06:40:57;;;;;;;8.87;8.07;;;;;;;12.58;90.50;100308.03;5046434;28;20306;-80
2023/09/23 06:43:23;;;;;;;8.50;7.60;;;;;;;12.62;90.36;100305.00;5046288;28;20221;-80
2023/09/23 06:45:54;;;;;;;8.17;7.37;;;;;;;12.65;89.86;100304.78;5046070;28;20207;-78
2023/09/23 06:48:22;;;;;;;8.13;7.33;;;;;;;12.65;89.86;100307.44;5038042;28;20573;-80
2023/09/23 06:50:56;;;;;;;8.37;7.57;;;;;;;12.68;89.94;100303.69;5045792;28;20224;-81
2023/09/23 06:53:23;;;;;;;8.03;7.23;;;;;;;12.71;89.66;100304.31;5045528;28;20201;-79
2023/09/23 06:55:50;;;;;;;8.83;7.50;;;;;;;12.75;89.14;100319.13;5043357;28;20317;-80
2023/09/23 06:58:16;;;;;;;8.17;7.30;;;;;;;12.80;88.86;100321.44;5041203;28;20219;-79
2023/09/23 07:00:43;;;;;;;7.67;6.97;;;;;;;12.82;88.50;100317.69;5045389;28;20232;-80
2023/09/23 07:03:09;;;;;;;8.10;6.87;;;;;;;12.84;88.02;100318.41;5046193;28;20202;-81
2023/09/23 07:05:37;;;;;;;7.73;6.93;;;;;;;12.89;88.06;100328.75;5047443;28;20198;-81
2023/09/23 07:08:04;;;;;;;8.87;6.47;;;;;;;12.91;87.45;100320.59;5046321;28;20229;-82
2023/09/23 07:10:34;;;;;;;6.40;5.80;;;;;;;12.96;87.28;100324.63;5044907;28;20213;-79
2023/09/23 07:13:01;;;;;;;7.00;5.50;;;;;;;13.01;87.16;100325.13;5041069;28;20757;-80
2023/09/23 07:15:28;;;;;;;6.00;5.50;;;;;;;13.10;86.91;100336.88;5041823;28;20213;-80
2023/09/23 07:17:54;;;;;;;6.00;5.40;;;;;;;13.18;86.08;100345.22;5045508;28;20241;-81
2023/09/23 07:20:21;;;;;;;5.47;4.57;;;;;;;13.20;86.33;100354.81;5048333;28;20217;-79
2023/09/23 07:22:49;;;;;;;5.37;4.43;;;;;;;13.29;85.41;100345.19;5050068;28;20204;-79
2023/09/23 07:25:15;;;;;;;4.67;4.20;;;;;;;13.34;84.87;100367.09;5041496;28;20226;-80
2023/09/23 07:27:42;;;;;;;4.70;4.23;;;;;;;13.43;84.51;100358.34;5045230;28;20201;-79
2023/09/23 07:30:09;;;;;;;5.80;5.20;;;;;;;13.52;83.91;100362.09;5047460;28;20272;-79
2023/09/23 07:32:35;;;;;;;8.47;4.57;;;;;;;13.59;83.72;100365.16;5042794;28;20577;-80
2023/09/23 07:35:03;;;;;;;4.83;3.93;;;;;;;13.64;83.45;100352.22;5040695;28;20583;-79
2023/09/23 07:37:30;;;;;;;6.60;4.80;;;;;;;13.69;82.79;100374.13;5044984;28;20293;-80
2023/09/23 07:39:58;;;;;;;5.03;4.37;;;;;;;13.74;82.95;100375.47;5049276;28;20753;-79
2023/09/23 07:42:24;;;;;;;4.50;4.10;;;;;;;13.84;82.73;100381.75;5051517;28;20209;-80
2023/09/23 07:44:50;;;;;;;4.53;4.13;;;;;;;13.90;82.48;100394.66;5050246;28;20221;-78
2023/09/23 07:47:17;;;;;;;4.10;3.70;;;;;;;13.96;82.28;100395.13;5048139;28;20206;-80
2023/09/23 07:49:43;;;;;;;4.37;3.80;;;;;;;13.96;81.84;100390.63;5042949;28;20231;-80
2023/09/23 07:52:10;;;;;;;4.40;3.37;;;;;;;13.98;81.51;100390.47;5052329;28;20202;-81
2023/09/23 07:54:38;;;;;;;5.40;3.67;;;;;;;13.99;81.58;100405.56;5045880;28;20209;-81
2023/09/23 07:57:05;;;;;;;4.10;3.57;;;;;;;13.99;81.50;100413.59;5049193;28;20707;-81
2023/09/23 07:59:32;;;;;;;4.37;3.20;;;;;;;14.03;81.30;100413.25;5048892;28;20210;-80
2023/09/23 08:01:58;;;;;;;9.67;3.93;;;;;;;14.08;82.01;100412.88;5048836;28;20202;-80
2023/09/23 08:04:25;;;;;;;5.30;3.17;;;;;;;14.16;81.97;100413.06;5047259;28;20201;-81
2023/09/23 08:06:51;;;;;;;3.70;2.83;;;;;;;14.29;81.59;100423.66;5049972;28;20209;-80
2023/09/23 08:09:18;;;;;;;3.37;2.80;;;;;;;14.44;80.56;100431.31;5045672;28;20230;-78
2023/09/23 08:11:44;;;;;;;6.10;3.57;;;;;;;14.54;79.69;100428.69;5051289;28;20202;-80
2023/09/23 08:14:12;;;;;;;4.57;2.80;;;;;;;14.67;78.56;100442.81;5049267;28;20217;-80
2023/09/23 08:16:38;;;;;;;3.50;2.77;;;;;;;14.76;77.82;100457.25;5046694;28;20204;-79
2023/09/23 08:19:05;;;;;;;3.37;2.93;;;;;;;14.80;76.38;100456.88;5052691;28;20210;-81
2023/09/23 08:21:31;;;;;;;4.23;2.50;;;;;;;14.81;76.29;100450.53;5050535;28;20225;-80
2023/09/23 08:23:58;;;;;;;3.13;2.40;;;;;;;14.84;77.06;100460.16;5047368;28;20206;-80
2023/09/23 08:26:25;;;;;;;4.90;2.50;;;;;;;14.87;77.11;100465.22;5051215;28;20236;-78
2023/09/23 08:28:52;;;;;;;2.87;2.53;;;;;;;14.94;76.47;100466.44;5050152;28;20230;-81
2023/09/23 08:31:20;;;;;;;3.33;2.40;;;;;;;15.04;77.13;100482.63;5049983;28;20221;-79
2023/09/23 08:33:47;;;;;;;2.27;2.07;;;;;;;15.10;76.86;100476.72;5048273;28;20214;-79
2023/09/23 08:36:13;;;;;;;3.00;2.27;;;;;;;15.16;75.81;100476.19;5052420;28;20213;-79
2023/09/23 08:38:41;;;;;;;3.33;2.30;;;;;;;15.21;76.08;100484.72;5049353;28;20208;-82
2023/09/23 08:41:08;;;;;;;3.73;2.20;;;;;;;15.25;76.30;100483.44;5051283;28;20571;-80
2023/09/23 08:43:37;;;;;;;5.50;2.90;;;;;;;15.28;75.79;100497.47;5046819;28;20590;-82
2023/09/23 08:46:05;;;;;;;3.83;2.70;;;;;;;15.28;75.43;100484.03;5049607;28;20214;-79
2023/09/23 08:48:34;;;;;;;4.33;2.63;;;;;;;15.32;75.08;100499.88;5048883;28;20938;-81
2023/09/23 08:51:02;;;;;;;4.90;2.50;;;;;;;15.33;75.30;100502.44;5052201;28;20230;-82
2023/09/23 08:53:30;;;;;;;2.70;2.43;;;;;;;15.35;75.56;100502.31;5048143;28;20248;-80
2023/09/23 08:55:57;;;;;;;4.57;2.27;;;;;;;15.38;75.28;100510.09;5045158;28;20213;-78
2023/09/23 08:58:24;;;;;;;4.03;2.37;;;;;;;15.45;75.80;100506.75;5047861;28;20208;-80
2023/09/23 09:00:52;;;;;;;3.00;2.27;;;;;;;15.53;75.93;100514.16;5052764;28;20273;-79
2023/09/23 09:03:18;;;;;;;2.60;1.80;;;;;;;15.61;75.23;100506.31;5051441;28;20339;-80
2023/09/23 09:05:46;;;;;;;6.87;2.30;;;;;;;15.71;73.87;100509.06;5047387;28;20211;-79
2023/09/23 09:08:14;;;;;;;3.70;2.20;;;;;;;15.70;73.60;100510.88;5046177;28;20208;-79
2023/09/23 09:10:41;;;;;;;15.17;3.50;;;;;;;15.76;73.29;100510.38;5052218;28;20698;-80
2023/09/23 09:13:08;;;;;;;19.90;4.53;;;;;;;15.79;72.32;100517.28;5048452;28;20202;-80
2023/09/23 09:15:36;;;;;;;3.80;2.30;;;;;;;15.76;72.18;100526.47;5041641;28;20257;-79
2023/09/23 09:18:02;;;;;;;4.33;2.40;;;;;;;15.78;71.80;100531.69;5044809;28;20684;-78
2023/09/23 09:20:29;;;;;;;5.50;2.30;;;;;;;15.75;71.68;100538.19;5048665;28;20225;-78
2023/09/23 09:22:57;;;;;;;5.77;2.13;;;;;;;15.75;71.69;100542.72;5051905;28;20212;-79
2023/09/23 09:25:24;;;;;;;4.13;2.00;;;;;;;15.74;70.80;100541.88;5049815;28;20213;-78
2023/09/23 09:27:52;;;;;;;3.83;2.27;;;;;;;15.79;71.33;100550.34;5049850;28;20687;-80
2023/09/23 09:30:19;;;;;;;4.80;2.97;;;;;;;15.79;70.06;100550.34;5048465;28;20702;-77
2023/09/23 09:32:47;;;;;;;2.73;2.50;;;;;;;15.77;70.39;100554.16;5042702;28;20621;-80
2023/09/23 09:35:15;;;;;;;4.10;2.90;;;;;;;15.77;70.81;100560.38;5046478;28;20656;-78
2023/09/23 09:37:44;;;;;;;3.80;2.47;;;;;;;15.81;71.71;100569.88;5046175;28;20218;-80
2023/09/23 09:40:16;;;;;;;4.23;2.43;;;;;;;15.85;70.27;100568.63;5048166;28;20306;-80
2023/09/23 09:42:48;;;;;;;5.17;2.53;;;;;;;15.88;70.05;100562.16;5050771;28;20229;-80
2023/09/23 09:45:19;;;;;;;3.00;2.70;;;;;;;15.90;70.52;100571.78;5047894;28;20209;-80
2023/09/23 09:47:47;;;;;;;2.90;2.47;;;;;;;15.95;70.26;100574.03;5048695;28;20555;-80
2023/09/23 09:50:15;;;;;;;3.00;2.20;;;;;;;16.01;70.26;100578.88;5039153;28;20254;-80
2023/09/23 09:52:43;;;;;;;4.30;2.47;;;;;;;16.04;69.53;100570.56;5047990;28;20203;-78
2023/09/23 09:55:15;;;;;;;4.70;2.33;;;;;;;16.07;69.61;100573.00;5048924;28;20623;-80
2023/09/23 09:57:42;;;;;;;2.67;2.47;;;;;;;16.17;69.82;100571.19;5048958;28;20203;-79
2023/09/23 10:00:15;;;;;;;3.03;2.40;;;;;;;16.26;69.73;100582.97;5046900;28;20224;-76
2023/09/23 10:02:42;;;;;;;4.60;2.43;;;;;;;16.39;69.19;100570.16;5044102;28;20219;-79
2023/09/23 10:05:17;;;;;;;2.83;2.33;;;;;;;16.46;68.65;100584.75;5047688;28;20211;-79
2023/09/23 10:07:53;;;;;;;3.83;2.10;;;;;;;16.52;68.15;100573.44;5049493;28;20235;-79
2023/09/23 10:10:31;;;;;;;2.60;2.10;;;;;;;16.58;67.61;100572.03;5051727;28;20682;-77
2023/09/23 10:12:59;;;;;;;3.20;2.30;;;;;;;16.60;66.45;100573.63;5047189;28;20259;-79
2023/09/23 10:15:27;;;;;;;2.97;2.20;;;;;;;16.65;66.73;100574.09;5047030;28;20236;-79
2023/09/23 10:17:57;;;;;;;4.27;2.20;;;;;;;16.77;66.70;100568.59;5050848;28;20212;-79
2023/09/23 10:20:32;;;;;;;2.83;2.40;;;;;;;16.82;65.11;100577.09;5050093;28;20617;-76
2023/09/23 10:22:59;;;;;;;2.63;2.30;;;;;;;16.90;64.59;100572.69;5052491;28;20214;-78
2023/09/23 10:25:39;;;;;;;3.13;1.90;;;;;;;17.03;65.30;100580.50;5052169;28;20204;-78
2023/09/23 10:28:06;;;;;;;3.47;2.03;;;;;;;17.14;64.95;100585.75;5046247;28;20253;-78
2023/09/23 10:30:35;;;;;;;2.90;1.90;;;;;;;17.25;63.16;100582.06;5047578;28;20413;-77
2023/09/23 10:33:03;;;;;;;2.90;1.80;;;;;;;17.35;63.29;100577.56;5049855;28;20244;-79
2023/09/23 10:35:29;;;;;;;3.80;1.97;;;;;;;17.39;61.61;100583.47;5049853;28;22082;-78
2023/09/23 10:37:56;;;;;;;5.87;2.17;;;;;;;17.44;61.95;100583.91;5050744;28;20210;-80
2023/09/23 10:40:22;;;;;;;2.50;1.70;;;;;;;17.53;62.30;100585.75;5049042;28;20234;-78
2023/09/23 10:42:50;;;;;;;3.60;2.30;;;;;;;17.61;61.36;100580.50;5048820;28;20597;-79
2023/09/23 10:45:20;;;;;;;3.40;1.93;;;;;;;17.68;61.20;100576.28;5048214;28;20207;-78
2023/09/23 10:47:46;;;;;;;2.30;1.70;;;;;;;17.74;60.73;100574.81;5050170;28;20206;-80
2023/09/23 10:50:13;;;;;;;3.97;1.93;;;;;;;17.75;61.20;100580.06;5051634;28;20246;-75
2023/09/23 10:52:39;;;;;;;3.83;2.10;;;;;;;17.82;61.20;100591.97;5051939;28;20223;-78
2023/09/23 10:55:09;;;;;;;2.97;1.97;;;;;;;17.85;61.32;100572.84;5048559;28;20214;-79
2023/09/23 10:57:36;;;;;;;4.03;2.30;;;;;;;17.85;60.23;100583.59;5049909;28;20195;-79
2023/09/23 11:00:16;;;;;;;3.57;2.00;;;;;;;17.88;60.82;100577.94;5052040;28;20219;-79
2023/09/23 11:02:44;;;;;;;3.50;1.93;;;;;;;17.97;61.58;100573.50;5049607;28;20600;-75
2023/09/23 11:05:12;;;;;;;2.83;1.80;;;;;;;18.04;60.04;100586.25;5047452;28;20576;-80
2023/09/23 11:07:42;;;;;;;3.10;1.60;;;;;;;18.11;59.43;100588.34;5047750;28;20258;-80
2023/09/23 11:10:12;;;;;;;2.10;1.33;;;;;;;18.16;58.98;100580.66;5047310;28;20322;-79
2023/09/23 11:12:38;;;;;;;1.57;1.47;;;;;;;18.24;58.96;100591.59;5046125;28;20229;-79
2023/09/23 11:15:08;;;;;;;1.87;1.60;;;;;;;18.33;58.51;100586.13;5056917;28;20207;-79
2023/09/23 11:17:34;;;;;;;2.50;1.60;;;;;;;18.37;58.94;100592.94;5055825;28;20224;-78
2023/09/23 11:20:10;;;;;;;3.13;1.70;;;;;;;18.36;58.83;100593.06;5057739;28;20228;-81
2023/09/23 11:22:38;;;;;;;2.80;1.63;;;;;;;18.34;57.91;100598.63;5054235;28;20215;-78
2023/09/23 11:25:09;;;;;;;2.63;1.50;;;;;;;18.30;57.57;100608.00;5057925;28;20252;-80
2023/09/23 11:27:36;;;;;;;3.43;1.53;;;;;;;18.22;56.92;100604.34;5053448;28;20215;-79
2023/09/23 11:30:04;;;;;;;2.43;1.70;;;;;;;18.13;57.83;100611.47;5052139;28;20240;-79